Time;durP1;ratioP1;P1;durP2;ratioP2;P2;SDS_P1;SDS_P2;PMS_P1;PMS_P2;Temp;Humidity;BMP_temperature;BMP_pressure;BME280_temperature;BME280_humidity;BME280_pressure;Samples;Min_cycle;Max_cycle;Signal;HPM_P1;HPM_P2
2023/08/28 00:00:06;;;;;;;;;;;22.00;62.40;;;;;;10236734;28;94985;-46
2023/08/28 00:05:07;;;;;;;;;;;22.00;62.40;;;;;;10228622;28;93561;-46
2023/08/28 00:10:09;;;;;;;;;;;22.00;62.30;;;;;;10222919;28;92748;-44
2023/08/28 00:15:11;;;;;;;;;;;22.00;62.30;;;;;;10232473;28;93175;-47
2023/08/28 00:20:16;;;;;;;;;;;22.00;62.30;;;;;;10221721;28;114981;-44
2023/08/28 00:25:18;;;;;;;;;;;21.90;62.20;;;;;;10188144;28;95849;-44
2023/08/28 00:30:20;;;;;;;;;;;21.90;62.20;;;;;;10236770;28;93612;-45
2023/08/28 00:35:22;;;;;;;;;;;21.90;62.20;;;;;;10215872;28;93475;-45
2023/08/28 00:40:24;;;;;;;;;;;21.90;62.10;;;;;;10216555;28;94252;-45
2023/08/28 00:45:26;;;;;;;;;;;21.90;62.00;;;;;;10220468;28;94465;-45
2023/08/28 00:50:27;;;;;;;;;;;21.80;62.00;;;;;;10206723;28;93671;-44
2023/08/28 00:55:31;;;;;;;;;;;21.80;61.90;;;;;;10231295;28;94057;-44
2023/08/28 01:00:34;;;;;;;;;;;21.80;62.00;;;;;;10215207;28;93614;-45
2023/08/28 01:05:56;;;;;;;;;;;21.80;61.90;;;;;;10199909;28;93991;-47
2023/08/28 01:11:03;;;;;;;;;;;21.80;62.00;;;;;;10200498;28;93664;-47
2023/08/28 01:16:06;;;;;;;;;;;21.80;61.80;;;;;;10216567;28;96749;-45
2023/08/28 01:21:08;;;;;;;;;;;21.80;61.90;;;;;;10203762;28;93917;-49
2023/08/28 01:26:10;;;;;;;;;;;21.80;62.00;;;;;;10221454;28;93457;-55
2023/08/28 01:31:12;;;;;;;;;;;21.80;61.90;;;;;;10239672;28;94206;-47
2023/08/28 01:36:14;;;;;;;;;;;21.70;61.80;;;;;;10209876;28;93689;-48
2023/08/28 01:41:18;;;;;;;;;;;21.80;61.80;;;;;;10211181;28;93856;-45
2023/08/28 01:46:19;;;;;;;;;;;21.80;61.90;;;;;;10228704;28;93847;-44
2023/08/28 01:51:22;;;;;;;;;;;21.70;61.80;;;;;;10242879;28;93432;-46
2023/08/28 01:56:24;;;;;;;;;;;21.70;61.80;;;;;;10219527;28;93492;-45
2023/08/28 02:01:26;;;;;;;;;;;21.70;61.80;;;;;;10212815;28;93791;-46
2023/08/28 02:06:28;;;;;;;;;;;21.70;61.80;;;;;;10206330;28;95902;-43
2023/08/28 02:11:30;;;;;;;;;;;21.70;61.70;;;;;;10206063;28;95084;-48
2023/08/28 02:16:34;;;;;;;;;;;21.70;61.70;;;;;;10212447;28;93393;-48
2023/08/28 02:21:36;;;;;;;;;;;21.70;61.80;;;;;;10224919;28;93688;-47
2023/08/28 02:26:37;;;;;;;;;;;21.70;61.70;;;;;;10224295;28;94008;-47
2023/08/28 02:31:39;;;;;;;;;;;21.70;61.70;;;;;;10214577;28;93490;-44
2023/08/28 02:36:41;;;;;;;;;;;21.60;61.60;;;;;;10212517;28;93244;-46
2023/08/28 02:41:43;;;;;;;;;;;21.60;61.60;;;;;;10227613;28;94439;-45
2023/08/28 02:46:45;;;;;;;;;;;21.60;61.60;;;;;;10210712;28;94374;-46
2023/08/28 02:51:50;;;;;;;;;;;21.60;61.60;;;;;;10225083;28;94491;-48
2023/08/28 02:56:52;;;;;;;;;;;21.60;61.60;;;;;;10237825;28;95983;-44
2023/08/28 03:01:54;;;;;;;;;;;21.60;61.60;;;;;;10227788;28;93489;-46
2023/08/28 03:06:56;;;;;;;;;;;21.60;61.60;;;;;;10224606;28;93930;-43
2023/08/28 03:11:57;;;;;;;;;;;21.60;61.50;;;;;;10230424;28;93485;-43
2023/08/28 03:16:59;;;;;;;;;;;21.60;61.50;;;;;;10236492;28;94787;-45
2023/08/28 03:22:01;;;;;;;;;;;21.60;61.40;;;;;;10230449;28;93627;-45
2023/08/28 03:27:02;;;;;;;;;;;21.60;61.50;;;;;;10238610;28;93380;-46
2023/08/28 03:32:04;;;;;;;;;;;21.60;61.40;;;;;;10228567;28;94723;-49
2023/08/28 03:37:06;;;;;;;;;;;21.60;61.30;;;;;;10231631;28;94528;-47
2023/08/28 03:42:08;;;;;;;;;;;21.60;61.40;;;;;;10209165;28;94034;-45
2023/08/28 03:47:10;;;;;;;;;;;21.60;61.20;;;;;;10200422;28;96847;-59
2023/08/28 03:52:12;;;;;;;;;;;21.60;61.20;;;;;;10226542;28;93730;-44
2023/08/28 03:57:14;;;;;;;;;;;21.60;61.20;;;;;;10226795;28;93934;-47
2023/08/28 04:02:16;;;;;;;;;;;21.60;61.10;;;;;;10227010;28;94105;-48
2023/08/28 04:07:22;;;;;;;;;;;21.60;61.10;;;;;;10238887;28;93583;-45
2023/08/28 04:12:27;;;;;;;;;;;21.60;61.00;;;;;;10221180;28;93591;-46
2023/08/28 04:17:28;;;;;;;;;;;21.70;61.00;;;;;;10221418;28;93432;-46
2023/08/28 04:22:30;;;;;;;;;;;21.60;61.00;;;;;;10226913;28;92614;-49
2023/08/28 04:27:32;;;;;;;;;;;21.60;61.00;;;;;;10219319;28;93422;-48
2023/08/28 04:32:35;;;;;;;;;;;21.60;61.00;;;;;;10226583;28;94658;-48
2023/08/28 04:37:37;;;;;;;;;;;21.60;60.90;;;;;;10205060;28;95895;-47
2023/08/28 04:42:38;;;;;;;;;;;21.60;61.10;;;;;;10214305;28;92827;-47
2023/08/28 04:47:40;;;;;;;;;;;21.60;60.90;;;;;;10697276;22;94833;-46
2023/08/28 04:52:42;;;;;;;;;;;21.60;61.00;;;;;;10220768;28;95165;-47
2023/08/28 04:57:44;;;;;;;;;;;21.70;60.90;;;;;;10208838;28;94446;-48
2023/08/28 05:02:45;;;;;;;;;;;21.60;61.40;;;;;;10210287;28;94791;-49
2023/08/28 05:07:47;;;;;;;;;;;21.60;61.10;;;;;;10230443;28;94482;-50
2023/08/28 05:12:49;;;;;;;;;;;21.60;61.60;;;;;;10228111;28;93403;-48
2023/08/28 05:17:51;;;;;;;;;;;21.60;62.50;;;;;;10229580;28;94737;-51
2023/08/28 05:22:53;;;;;;;;;;;21.60;62.60;;;;;;10227352;28;94511;-50
2023/08/28 05:27:54;;;;;;;;;;;21.60;62.70;;;;;;10221205;28;96836;-47
2023/08/28 05:32:56;;;;;;;;;;;21.60;62.60;;;;;;10218203;28;93505;-51
2023/08/28 05:37:58;;;;;;;;;;;21.60;62.20;;;;;;10222542;28;94664;-50
2023/08/28 05:43:00;;;;;;;;;;;21.60;62.20;;;;;;10225170;28;93471;-47
2023/08/28 05:48:02;;;;;;;;;;;21.60;62.30;;;;;;10229064;28;93309;-46
2023/08/28 05:53:04;;;;;;;;;;;21.60;62.40;;;;;;10232266;28;93733;-46
2023/08/28 05:58:06;;;;;;;;;;;21.60;62.40;;;;;;10232809;28;94953;-48
2023/08/28 06:03:08;;;;;;;;;;;21.50;62.40;;;;;;10215738;28;93897;-52
2023/08/28 06:08:10;;;;;;;;;;;21.60;62.40;;;;;;10232597;28;93566;-48
2023/08/28 06:13:13;;;;;;;;;;;21.60;62.40;;;;;;10210485;28;94116;-50
2023/08/28 06:18:17;;;;;;;;;;;21.50;62.30;;;;;;10212595;28;96463;-52
2023/08/28 06:23:20;;;;;;;;;;;21.50;62.30;;;;;;10231433;28;93981;-50
2023/08/28 06:28:22;;;;;;;;;;;21.60;62.50;;;;;;10202597;28;94757;-51
2023/08/28 06:33:24;;;;;;;;;;;21.50;62.30;;;;;;10228122;28;93527;-49
2023/08/28 06:38:25;;;;;;;;;;;21.50;62.70;;;;;;10193985;28;93487;-51
2023/08/28 06:43:28;;;;;;;;;;;21.60;62.80;;;;;;10224298;28;94464;-51
2023/08/28 06:48:30;;;;;;;;;;;21.60;62.80;;;;;;10231400;28;94584;-51
2023/08/28 06:53:32;;;;;;;;;;;21.60;62.80;;;;;;10227780;28;94030;-52
2023/08/28 06:58:33;;;;;;;;;;;21.60;62.80;;;;;;10223287;28;93466;-50
2023/08/28 07:03:35;;;;;;;;;;;21.70;62.80;;;;;;10227973;28;94775;-50
2023/08/28 07:08:37;;;;;;;;;;;21.70;63.50;;;;;;10235098;28;96324;-52
2023/08/28 07:13:39;;;;;;;;;;;21.70;63.40;;;;;;10237054;28;93619;-51
2023/08/28 07:18:40;;;;;;;;;;;21.80;63.10;;;;;;10213634;28;94459;-50
2023/08/28 07:23:43;;;;;;;;;;;21.80;63.20;;;;;;10233230;28;93555;-50
2023/08/28 07:28:49;;;;;;;;;;;21.80;63.10;;;;;;10219796;28;94667;-49
2023/08/28 07:33:51;;;;;;;;;;;21.80;63.10;;;;;;10219418;28;93499;-49
2023/08/28 07:38:52;;;;;;;;;;;21.80;63.20;;;;;;10219683;28;95154;-47
2023/08/28 07:43:54;;;;;;;;;;;21.80;63.20;;;;;;10237622;28;93827;-48
2023/08/28 07:48:56;;;;;;;;;;;21.80;63.20;;;;;;10236435;28;94513;-46
2023/08/28 07:53:57;;;;;;;;;;;21.80;63.30;;;;;;10222802;28;94542;-46
2023/08/28 07:58:59;;;;;;;;;;;21.70;63.30;;;;;;10237449;28;97270;-50
2023/08/28 08:04:01;;;;;;;;;;;21.80;63.30;;;;;;10252172;28;94479;-48
2023/08/28 08:09:03;;;;;;;;;;;21.70;63.20;;;;;;10242350;28;93971;-49
2023/08/28 08:14:04;;;;;;;;;;;21.70;63.30;;;;;;10250452;28;94406;-47
2023/08/28 08:19:08;;;;;;;;;;;21.70;63.20;;;;;;10241567;28;94429;-47
2023/08/28 08:24:10;;;;;;;;;;;21.70;63.20;;;;;;10236908;28;94810;-49
2023/08/28 08:29:12;;;;;;;;;;;21.70;63.20;;;;;;10246309;28;93812;-48
2023/08/28 08:34:15;;;;;;;;;;;21.70;63.20;;;;;;10228628;28;93748;-49
2023/08/28 08:39:16;;;;;;;;;;;21.70;63.60;;;;;;10207506;28;94100;-46
2023/08/28 08:44:19;;;;;;;;;;;21.70;63.70;;;;;;10233774;28;94478;-46
2023/08/28 08:49:24;;;;;;;;;;;21.70;63.70;;;;;;10212016;28;95794;-49
2023/08/28 08:54:26;;;;;;;;;;;21.80;63.60;;;;;;10217468;28;93397;-46
2023/08/28 08:59:28;;;;;;;;;;;21.80;63.60;;;;;;10233760;28;94183;-49
2023/08/28 09:04:31;;;;;;;;;;;21.70;63.50;;;;;;10224580;28;94379;-46
2023/08/28 09:09:33;;;;;;;;;;;21.80;63.60;;;;;;10232906;28;93517;-48
2023/08/28 09:14:35;;;;;;;;;;;21.70;63.40;;;;;;10227407;28;93821;-49
2023/08/28 09:19:41;;;;;;;;;;;21.70;63.60;;;;;;10228013;28;94759;-52
2023/08/28 09:24:50;;;;;;;;;;;21.70;63.90;;;;;;10226776;28;93681;-49
2023/08/28 09:29:53;;;;;;;;;;;21.70;63.90;;;;;;10223523;28;93759;-48
2023/08/28 09:34:54;;;;;;;;;;;21.70;63.90;;;;;;10214365;28;94295;-51
2023/08/28 09:39:56;;;;;;;;;;;21.80;63.90;;;;;;10215294;28;95986;-49
2023/08/28 09:44:58;;;;;;;;;;;21.90;63.70;;;;;;10227081;28;93450;-46
2023/08/28 09:50:00;;;;;;;;;;;21.90;63.60;;;;;;10225175;28;94840;-51
2023/08/28 09:55:04;;;;;;;;;;;22.00;63.40;;;;;;10230714;28;94518;-50
2023/08/28 10:00:06;;;;;;;;;;;22.10;63.30;;;;;;10232455;28;94045;-46
2023/08/28 10:05:09;;;;;;;;;;;22.10;63.20;;;;;;10215968;28;94482;-50
2023/08/28 10:10:16;;;;;;;;;;;22.10;63.30;;;;;;10232350;28;94735;-46
2023/08/28 10:15:18;;;;;;;;;;;22.00;63.30;;;;;;10213236;28;92670;-49
2023/08/28 10:20:21;;;;;;;;;;;22.00;63.30;;;;;;10212221;28;94835;-47
2023/08/28 10:25:24;;;;;;;;;;;22.10;63.20;;;;;;10213903;28;94484;-46
2023/08/28 10:30:26;;;;;;;;;;;22.20;63.10;;;;;;10213124;28;97099;-46
2023/08/28 10:35:28;;;;;;;;;;;22.20;62.80;;;;;;10207781;28;93423;-46
2023/08/28 10:40:30;;;;;;;;;;;22.30;62.70;;;;;;10209835;28;94426;-46
2023/08/28 10:45:34;;;;;;;;;;;22.40;62.60;;;;;;10215865;28;93457;-46
2023/08/28 10:50:37;;;;;;;;;;;22.40;62.40;;;;;;10215484;28;94380;-50
2023/08/28 10:55:49;;;;;;;;;;;22.40;62.40;;;;;;10220498;28;94449;-50
2023/08/28 11:01:11;;;;;;;;;;;22.40;62.20;;;;;;10208398;28;93439;-48
2023/08/28 11:06:32;;;;;;;;;;;22.40;62.30;;;;;;10231334;28;94008;-51
2023/08/28 11:11:34;;;;;;;;;;;22.40;62.20;;;;;;10222819;28;94739;-47
2023/08/28 11:16:39;;;;;;;;;;;22.40;62.20;;;;;;10228013;28;94451;-46
2023/08/28 11:21:44;;;;;;;;;;;22.40;62.20;;;;;;10216066;28;95886;-47
2023/08/28 11:26:46;;;;;;;;;;;22.40;62.20;;;;;;10193767;28;94550;-47
2023/08/28 11:31:49;;;;;;;;;;;22.40;62.30;;;;;;10235709;28;93459;-49
2023/08/28 11:36:51;;;;;;;;;;;22.30;62.30;;;;;;10216896;28;94784;-48
2023/08/28 11:41:53;;;;;;;;;;;22.30;62.30;;;;;;10209416;28;94454;-51
2023/08/28 11:46:55;;;;;;;;;;;22.30;62.40;;;;;;10234009;28;93962;-49
2023/08/28 11:51:56;;;;;;;;;;;22.30;63.30;;;;;;10225148;28;93380;-49
2023/08/28 11:56:59;;;;;;;;;;;22.30;62.30;;;;;;10235318;28;93669;-49
2023/08/28 12:02:02;;;;;;;;;;;22.20;62.20;;;;;;10236272;28;94680;-50
2023/08/28 12:07:16;;;;;;;;;;;22.30;62.40;;;;;;10233240;28;93987;-51
2023/08/28 12:12:19;;;;;;;;;;;22.20;62.30;;;;;;10231872;28;96549;-47
2023/08/28 12:17:26;;;;;;;;;;;22.20;62.40;;;;;;10218499;28;94433;-49
2023/08/28 12:22:28;;;;;;;;;;;22.20;62.60;;;;;;10236657;28;94503;-48
2023/08/28 12:27:30;;;;;;;;;;;22.20;62.40;;;;;;10223922;28;94572;-48
2023/08/28 12:32:32;;;;;;;;;;;22.20;62.50;;;;;;10229013;28;94087;-46
2023/08/28 12:37:35;;;;;;;;;;;22.20;62.70;;;;;;10227802;28;93220;-47
2023/08/28 12:42:38;;;;;;;;;;;22.20;62.60;;;;;;10235547;28;93599;-50
2023/08/28 12:47:40;;;;;;;;;;;22.20;62.70;;;;;;10230600;28;93100;-50
2023/08/28 12:52:42;;;;;;;;;;;22.20;62.60;;;;;;10229722;28;94374;-51
2023/08/28 12:57:45;;;;;;;;;;;22.20;62.60;;;;;;10231994;28;94002;-47
2023/08/28 13:02:47;;;;;;;;;;;22.20;62.60;;;;;;10210699;28;99602;-49
2023/08/28 13:07:49;;;;;;;;;;;22.20;62.80;;;;;;10222165;28;93840;-49
2023/08/28 13:12:51;;;;;;;;;;;22.10;62.40;;;;;;10194346;28;93724;-49
2023/08/28 13:17:53;;;;;;;;;;;22.10;62.60;;;;;;10222806;28;94591;-47
2023/08/28 13:22:55;;;;;;;;;;;22.10;62.60;;;;;;10189443;28;94540;-46
2023/08/28 13:27:56;;;;;;;;;;;22.20;62.80;;;;;;10211186;28;93449;-47
2023/08/28 13:33:01;;;;;;;;;;;22.20;62.80;;;;;;10194276;28;94465;-48
2023/08/28 13:38:04;;;;;;;;;;;22.20;62.60;;;;;;10220357;28;93701;-48
2023/08/28 13:43:06;;;;;;;;;;;22.20;62.60;;;;;;10217753;28;94001;-48
2023/08/28 13:48:08;;;;;;;;;;;22.20;62.50;;;;;;10217631;28;94501;-47
2023/08/28 13:53:10;;;;;;;;;;;22.20;62.60;;;;;;10210088;28;96415;-47
2023/08/28 13:58:12;;;;;;;;;;;22.20;62.60;;;;;;10225995;28;94446;-46
2023/08/28 14:03:14;;;;;;;;;;;22.20;62.70;;;;;;10214732;28;94042;-53
2023/08/28 14:08:16;;;;;;;;;;;22.20;62.70;;;;;;10214135;28;93563;-50
2023/08/28 14:13:18;;;;;;;;;;;22.20;62.80;;;;;;10229642;28;93407;-48
2023/08/28 14:18:20;;;;;;;;;;;22.20;62.80;;;;;;10206221;28;94238;-49
2023/08/28 14:23:22;;;;;;;;;;;22.20;62.90;;;;;;10223167;28;95085;-49
2023/08/28 14:28:25;;;;;;;;;;;22.20;63.00;;;;;;10232714;28;93910;-47
2023/08/28 14:33:27;;;;;;;;;;;22.20;62.80;;;;;;10214468;28;94636;-49
2023/08/28 14:38:29;;;;;;;;;;;22.10;62.80;;;;;;10220231;28;94809;-52
2023/08/28 14:43:33;;;;;;;;;;;22.10;62.90;;;;;;10206188;28;95808;-51
2023/08/28 14:48:35;;;;;;;;;;;22.20;62.80;;;;;;10218128;28;93525;-49
2023/08/28 14:53:37;;;;;;;;;;;22.20;62.90;;;;;;10209203;28;94098;-50
2023/08/28 14:58:40;;;;;;;;;;;22.20;63.00;;;;;;10228585;28;93511;-47
2023/08/28 15:03:43;;;;;;;;;;;22.20;63.00;;;;;;10236581;28;93564;-49
2023/08/28 15:08:46;;;;;;;;;;;22.20;62.90;;;;;;10208027;28;93053;-47
2023/08/28 15:13:48;;;;;;;;;;;22.20;62.90;;;;;;10225106;28;93817;-47
2023/08/28 15:18:50;;;;;;;;;;;22.20;62.90;;;;;;10203399;28;93520;-47
2023/08/28 15:23:52;;;;;;;;;;;22.20;62.80;;;;;;10225627;28;93536;-50
2023/08/28 15:28:54;;;;;;;;;;;22.20;62.90;;;;;;10221921;28;93372;-48
2023/08/28 15:33:55;;;;;;;;;;;22.20;62.80;;;;;;10213596;28;97141;-47
2023/08/28 15:38:59;;;;;;;;;;;22.20;62.70;;;;;;10223406;28;95950;-48
2023/08/28 15:44:01;;;;;;;;;;;22.20;62.60;;;;;;10237086;28;94403;-48
2023/08/28 15:49:03;;;;;;;;;;;22.20;62.70;;;;;;10205519;28;94115;-48
2023/08/28 15:54:05;;;;;;;;;;;22.20;62.60;;;;;;10235511;28;93940;-51
2023/08/28 15:59:07;;;;;;;;;;;22.20;62.70;;;;;;10234354;28;93609;-52
2023/08/28 16:04:16;;;;;;;;;;;22.20;63.70;;;;;;10229804;28;94271;-53
2023/08/28 16:09:18;;;;;;;;;;;22.20;62.70;;;;;;10237384;28;93610;-48
2023/08/28 16:14:20;;;;;;;;;;;22.20;62.70;;;;;;10223649;28;94460;-51
2023/08/28 16:19:23;;;;;;;;;;;22.20;62.70;;;;;;10225559;28;93507;-49
2023/08/28 16:24:27;;;;;;;;;;;22.20;62.70;;;;;;10229078;28;96037;-51
2023/08/28 16:29:29;;;;;;;;;;;22.20;62.70;;;;;;10234576;28;93489;-53
2023/08/28 16:34:30;;;;;;;;;;;22.30;64.10;;;;;;10232170;28;94407;-52
2023/08/28 16:39:32;;;;;;;;;;;22.40;64.70;;;;;;10222712;28;95140;-52
2023/08/28 16:44:34;;;;;;;;;;;22.60;64.60;;;;;;10223174;28;95485;-51
2023/08/28 16:49:36;;;;;;;;;;;22.70;64.20;;;;;;10231668;28;95471;-48
2023/08/28 16:54:40;;;;;;;;;;;22.80;64.00;;;;;;10216143;28;93719;-51
2023/08/28 16:59:42;;;;;;;;;;;22.80;63.90;;;;;;10236082;28;93671;-49
2023/08/28 17:04:45;;;;;;;;;;;22.80;63.90;;;;;;10233364;28;93849;-53
2023/08/28 17:09:47;;;;;;;;;;;22.70;63.80;;;;;;10218830;28;94003;-50
2023/08/28 17:14:50;;;;;;;;;;;22.80;65.10;;;;;;10200901;28;97929;-52
2023/08/28 17:19:51;;;;;;;;;;;22.90;65.50;;;;;;10213502;28;94443;-48
2023/08/28 17:24:53;;;;;;;;;;;23.00;64.50;;;;;;10218634;28;94963;-48
2023/08/28 17:29:55;;;;;;;;;;;23.00;64.60;;;;;;10228348;28;94224;-51
2023/08/28 17:34:57;;;;;;;;;;;22.90;64.50;;;;;;10228344;28;94530;-49
2023/08/28 17:39:59;;;;;;;;;;;22.90;64.50;;;;;;10233176;28;94417;-53
2023/08/28 17:45:01;;;;;;;;;;;22.90;64.60;;;;;;10224466;28;94673;-50
2023/08/28 17:50:03;;;;;;;;;;;22.80;64.40;;;;;;10234470;28;94043;-48
2023/08/28 17:55:05;;;;;;;;;;;22.80;64.30;;;;;;10232112;28;94466;-50
2023/08/28 18:00:08;;;;;;;;;;;22.80;64.20;;;;;;10232697;28;94447;-53
2023/08/28 18:05:11;;;;;;;;;;;22.70;64.20;;;;;;10227583;28;95920;-49
2023/08/28 18:10:13;;;;;;;;;;;22.70;64.10;;;;;;10229322;28;94702;-52
2023/08/28 18:15:17;;;;;;;;;;;22.70;64.10;;;;;;10214522;28;93840;-52
2023/08/28 18:20:19;;;;;;;;;;;22.60;64.00;;;;;;10218203;28;94204;-49
2023/08/28 18:25:24;;;;;;;;;;;22.60;64.00;;;;;;10219826;28;94433;-50
2023/08/28 18:30:26;;;;;;;;;;;22.60;63.90;;;;;;10233751;28;95047;-51
2023/08/28 18:35:28;;;;;;;;;;;22.60;63.90;;;;;;10232693;28;93405;-63
2023/08/28 18:40:29;;;;;;;;;;;22.60;63.80;;;;;;10240702;28;92588;-50
2023/08/28 18:45:31;;;;;;;;;;;22.60;63.80;;;;;;10238007;28;93988;-50
2023/08/28 18:50:33;;;;;;;;;;;22.50;63.70;;;;;;10238800;28;94583;-53
2023/08/28 18:55:35;;;;;;;;;;;22.50;63.70;;;;;;10234142;28;96833;-51
2023/08/28 19:00:37;;;;;;;;;;;22.50;63.70;;;;;;10226481;28;94368;-51
2023/08/28 19:05:39;;;;;;;;;;;22.50;63.60;;;;;;10236555;28;94538;-46
2023/08/28 19:10:41;;;;;;;;;;;22.50;63.50;;;;;;10237251;28;93866;-51
2023/08/28 19:15:44;;;;;;;;;;;22.50;63.50;;;;;;10237958;28;94378;-49
2023/08/28 19:20:46;;;;;;;;;;;22.50;63.50;;;;;;10219065;28;94020;-51
2023/08/28 19:26:03;;;;;;;;;;;22.50;63.50;;;;;;10235799;28;94027;-47
2023/08/28 19:31:05;;;;;;;;;;;22.40;63.40;;;;;;10236124;28;92783;-52
2023/08/28 19:36:07;;;;;;;;;;;22.40;63.30;;;;;;10237206;28;93636;-52
2023/08/28 19:41:09;;;;;;;;;;;22.40;63.40;;;;;;10236611;28;94451;-51
2023/08/28 19:46:12;;;;;;;;;;;22.40;63.40;;;;;;10231854;28;97072;-52
2023/08/28 19:51:14;;;;;;;;;;;22.40;63.40;;;;;;10239766;28;93732;-53
2023/08/28 19:56:17;;;;;;;;;;;22.40;63.30;;;;;;10228815;28;94746;-50
2023/08/28 20:01:19;;;;;;;;;;;22.40;63.30;;;;;;10220624;28;94316;-50
2023/08/28 20:06:25;;;;;;;;;;;22.40;63.40;;;;;;10232903;28;94808;-47
2023/08/28 20:11:27;;;;;;;;;;;22.40;63.40;;;;;;10233294;28;94391;-49
2023/08/28 20:16:28;;;;;;;;;;;22.40;63.50;;;;;;10232884;28;94468;-50
2023/08/28 20:21:30;;;;;;;;;;;22.40;63.50;;;;;;10230010;28;93702;-52
2023/08/28 20:26:32;;;;;;;;;;;22.40;63.50;;;;;;10233446;28;94355;-51
2023/08/28 20:31:33;;;;;;;;;;;22.40;63.50;;;;;;10234619;28;93442;-51
2023/08/28 20:36:35;;;;;;;;;;;22.40;63.50;;;;;;10231075;28;96588;-48
2023/08/28 20:41:37;;;;;;;;;;;22.40;63.40;;;;;;10232358;28;95277;-45
2023/08/28 20:46:39;;;;;;;;;;;22.40;63.40;;;;;;10228337;28;93747;-48
2023/08/28 20:51:41;;;;;;;;;;;22.40;63.40;;;;;;10230807;28;93451;-49
2023/08/28 20:56:43;;;;;;;;;;;22.30;63.40;;;;;;10222389;28;94601;-45
2023/08/28 21:01:45;;;;;;;;;;;22.30;63.30;;;;;;10229731;28;95537;-47
2023/08/28 21:06:46;;;;;;;;;;;22.30;63.40;;;;;;10213142;28;94051;-55
2023/08/28 21:11:49;;;;;;;;;;;22.20;63.40;;;;;;10234254;28;92924;-45
2023/08/28 21:16:51;;;;;;;;;;;22.20;63.60;;;;;;10202904;28;94553;-45
2023/08/28 21:21:52;;;;;;;;;;;22.20;63.40;;;;;;10214628;28;93408;-50
2023/08/28 21:26:54;;;;;;;;;;;22.20;63.40;;;;;;10225611;28;95901;-45
2023/08/28 21:31:58;;;;;;;;;;;22.10;63.40;;;;;;10226888;28;94384;-46
2023/08/28 21:36:59;;;;;;;;;;;22.10;63.40;;;;;;10230455;28;94377;-47
2023/08/28 21:42:01;;;;;;;;;;;22.10;63.50;;;;;;10230757;28;94431;-46
2023/08/28 21:47:03;;;;;;;;;;;22.10;63.40;;;;;;10232918;28;94774;-44
2023/08/28 21:52:05;;;;;;;;;;;22.10;63.50;;;;;;10231117;28;93415;-46
2023/08/28 21:57:07;;;;;;;;;;;22.10;63.50;;;;;;10227306;28;93560;-49
2023/08/28 22:02:08;;;;;;;;;;;22.00;63.50;;;;;;10205342;28;93936;-47
2023/08/28 22:07:11;;;;;;;;;;;22.00;63.50;;;;;;10224218;28;93629;-56
2023/08/28 22:12:12;;;;;;;;;;;22.00;63.40;;;;;;10231363;28;93466;-48
2023/08/28 22:17:15;;;;;;;;;;;22.00;63.40;;;;;;10211688;28;96349;-47
2023/08/28 22:22:17;;;;;;;;;;;22.00;63.50;;;;;;10221935;28;94225;-52
2023/08/28 22:27:19;;;;;;;;;;;22.00;63.40;;;;;;10222373;28;93846;-48
2023/08/28 22:32:21;;;;;;;;;;;22.00;63.50;;;;;;10199441;28;93491;-46
2023/08/28 22:37:23;;;;;;;;;;;21.90;63.30;;;;;;10226403;28;93929;-46
2023/08/28 22:42:24;;;;;;;;;;;21.90;63.30;;;;;;10218531;28;93626;-47
2023/08/28 22:47:26;;;;;;;;;;;21.90;63.30;;;;;;10212604;28;93493;-46
2023/08/28 22:52:28;;;;;;;;;;;21.90;63.20;;;;;;10220636;28;93746;-47
2023/08/28 22:57:30;;;;;;;;;;;21.90;63.20;;;;;;10228722;28;94534;-49
2023/08/28 23:02:32;;;;;;;;;;;21.90;63.20;;;;;;10212592;28;93390;-46
2023/08/28 23:07:34;;;;;;;;;;;21.90;63.20;;;;;;10199915;28;96817;-48
2023/08/28 23:12:36;;;;;;;;;;;21.90;63.20;;;;;;10227687;28;94425;-46
2023/08/28 23:17:38;;;;;;;;;;;21.90;63.30;;;;;;10213006;28;94405;-51
2023/08/28 23:22:40;;;;;;;;;;;21.90;63.20;;;;;;10232292;28;93452;-45
2023/08/28 23:27:43;;;;;;;;;;;21.80;63.10;;;;;;10216852;28;93710;-48
2023/08/28 23:32:46;;;;;;;;;;;21.80;63.10;;;;;;10236327;28;94549;-47
2023/08/28 23:37:48;;;;;;;;;;;21.80;63.00;;;;;;10225164;28;93488;-47
2023/08/28 23:42:50;;;;;;;;;;;21.80;63.00;;;;;;10237435;28;92740;-46
2023/08/28 23:47:51;;;;;;;;;;;21.80;62.90;;;;;;10234873;28;93462;-46
2023/08/28 23:52:53;;;;;;;;;;;21.80;63.90;;;;;;10235850;28;93512;-46
2023/08/28 23:57:55;;;;;;;;;;;21.80;62.90;;;;;;10226418;28;96991;-47
